Wyoming, Illinois
Current Conditions -  °F | °C
As of 11:55 PM on Thursday 27 Nov 2014 (Local Time) from KC75 Reporting Station
Overcast Overcast  
Wind Chill: 14°   Ceiling: 10000
Heat Index: 14°   Visibility: 10mi
Dew Point:   Wind: 3mph
Humidity: 76%   Direction: 230°SW
Pressure: 30.41"   Gusts: NA
Location:  41.06°N, 89.77°W
Report Text: KC75 280555Z AUTO 23003KT 10SM BKN100 OVC120 M10/M13 A3041 RMK AO2 T11001135 11083 21120 410311120
Loading
Personal Weather Stations






























Interactive Weather Map New forecast layout! Learn more

10-Day Weather Forecast

Advertisements
Track Severe Weather on mobile